createdAt,value
2023-11-05T00:01:23.552Z,959.17
2023-11-05T00:16:25.322Z,958.88
2023-11-05T00:31:27.048Z,958.5
2023-11-05T00:46:28.761Z,958.3
2023-11-05T01:01:30.546Z,957.96
2023-11-05T01:16:32.322Z,957.74
2023-11-05T01:31:34.021Z,957.78
2023-11-05T01:46:35.759Z,957.95
2023-11-05T02:01:37.568Z,958.03
2023-11-05T02:16:39.305Z,957.99
2023-11-05T02:31:41.006Z,958.12
2023-11-05T02:46:42.686Z,957.65
2023-11-05T03:01:44.508Z,957.64
2023-11-05T03:16:46.272Z,957.74
2023-11-05T03:31:48.041Z,957.61
2023-11-05T03:46:49.732Z,957.61
2023-11-05T04:01:51.420Z,957.7
2023-11-05T04:16:53.111Z,957.78
2023-11-05T04:31:54.800Z,957.86
2023-11-05T04:46:56.482Z,957.58
2023-11-05T05:01:58.217Z,957.61
2023-11-05T05:16:59.990Z,957.73
2023-11-05T05:32:01.773Z,957.9
2023-11-05T05:47:03.460Z,957.99
2023-11-05T06:02:05.239Z,957.74
2023-11-05T06:17:06.988Z,957.79
2023-11-05T06:32:08.683Z,957.82
2023-11-05T06:47:10.481Z,957.69
2023-11-05T07:02:12.221Z,957.67
2023-11-05T07:17:14.008Z,957.69
2023-11-05T07:32:16.221Z,957.71
2023-11-05T07:47:18.272Z,957.72
2023-11-05T08:02:19.986Z,957.58
2023-11-05T08:17:21.781Z,957.57
2023-11-05T08:32:23.468Z,957.52
2023-11-05T08:47:25.151Z,957.47
2023-11-05T09:02:26.901Z,957.65
2023-11-05T09:17:28.677Z,957.72
2023-11-05T09:32:30.491Z,957.75
2023-11-05T09:47:32.234Z,957.81
2023-11-05T10:02:34.246Z,957.56
2023-11-05T10:17:36.199Z,957.54
2023-11-05T10:32:38.009Z,957.6
2023-11-05T10:47:39.980Z,957.57
2023-11-05T11:02:51.127Z,957.67
2023-11-05T11:17:57.110Z,957.68
2023-11-05T11:32:59.012Z,957.73
2023-11-05T11:48:01.113Z,957.79
2023-11-05T12:03:03.138Z,958.13
2023-11-05T12:18:04.945Z,958.3
2023-11-05T12:33:06.861Z,958.31
2023-11-05T12:48:09.127Z,958.81
2023-11-05T13:03:11.591Z,959.03
2023-11-05T13:18:13.601Z,959.11
2023-11-05T13:33:17.237Z,958.71
2023-11-05T13:48:19.118Z,958.83
2023-11-05T14:03:22.954Z,959.15
2023-11-05T14:18:25.051Z,959.35
2023-11-05T14:33:28.326Z,959.36
2023-11-05T14:48:31.016Z,959.61
2023-11-05T15:03:32.750Z,959.57
2023-11-05T15:18:37.205Z,959.83
2023-11-05T15:33:40.957Z,960.02
2023-11-05T15:48:42.822Z,960.04
2023-11-05T16:03:45.026Z,960.16
2023-11-05T16:18:48.302Z,960.18
2023-11-05T16:33:50.636Z,960.22
2023-11-05T16:48:52.440Z,960.27
2023-11-05T17:04:00.982Z,960.47
2023-11-05T17:19:06.164Z,960.46
2023-11-05T17:34:08.355Z,960.52
2023-11-05T17:49:10.170Z,960.49
2023-11-05T18:04:12.788Z,960.58
2023-11-05T18:19:14.887Z,960.3
2023-11-05T18:34:16.581Z,960.1
2023-11-05T18:49:18.361Z,960.07
2023-11-05T19:04:20.069Z,960.02
2023-11-05T19:19:21.845Z,960.04
2023-11-05T19:34:23.534Z,959.97
2023-11-05T19:49:25.431Z,959.95
2023-11-05T20:04:27.268Z,959.94
2023-11-05T20:19:29.281Z,959.92
2023-11-05T20:34:30.968Z,960.04
2023-11-05T20:49:32.859Z,959.97
2023-11-05T21:04:37.326Z,960.05
2023-11-05T21:19:39.055Z,960.05
2023-11-05T21:34:40.783Z,959.84
2023-11-05T21:49:42.465Z,959.72
2023-11-05T22:04:44.271Z,959.71
2023-11-05T22:19:46.072Z,959.68
2023-11-05T22:34:47.840Z,959.57
2023-11-05T22:49:49.637Z,959.62
2023-11-05T23:04:51.365Z,959.63
2023-11-05T23:19:53.027Z,959.58
2023-11-05T23:34:54.880Z,959.59
2023-11-05T23:49:56.546Z,959.5
